Time;durP1;ratioP1;P1;durP2;ratioP2;P2;SDS_P1;SDS_P2;PMS_P1;PMS_P2;Temp;Humidity;BMP_temperature;BMP_pressure;BME280_temperature;BME280_humidity;BME280_pressure;Samples;Min_cycle;Max_cycle;Signal;HPM_P1;HPM_P2
2023/02/05 00:01:44;;;;;;;4.53;1.65;;;;;;;;;;5038037;28;20087;-79
2023/02/05 00:04:10;;;;;;;5.43;1.65;;;;;;;;;;5035403;28;20045;-80
2023/02/05 00:06:36;;;;;;;6.63;1.92;;;;;;;;;;5035599;28;20071;-80
2023/02/05 00:09:03;;;;;;;4.00;1.42;;;;;;;;;;5015821;28;20046;-80
2023/02/05 00:11:29;;;;;;;8.52;3.15;;;;;;;;;;5033989;28;20060;-80
2023/02/05 00:13:56;;;;;;;3.75;1.80;;;;;;;;;;5026788;28;20058;-80
2023/02/05 00:16:23;;;;;;;7.05;2.00;;;;;;;;;;5013793;28;20475;-79
2023/02/05 00:18:50;;;;;;;5.47;1.83;;;;;;;;;;5014642;28;20327;-80
2023/02/05 00:21:17;;;;;;;6.20;1.50;;;;;;;;;;5022873;28;20062;-78
2023/02/05 00:23:44;;;;;;;3.78;1.80;;;;;;;;;;5016942;28;20054;-79
2023/02/05 00:26:13;;;;;;;3.38;1.45;;;;;;;;;;5017314;28;20049;-78
2023/02/05 00:28:39;;;;;;;3.92;1.60;;;;;;;;;;5017886;28;20114;-78
2023/02/05 00:31:07;;;;;;;4.68;1.60;;;;;;;;;;5018044;28;20133;-77
2023/02/05 00:33:34;;;;;;;4.28;1.60;;;;;;;;;;5017016;28;20426;-78
2023/02/05 00:36:00;;;;;;;7.25;1.80;;;;;;;;;;5017009;28;20056;-78
2023/02/05 00:38:26;;;;;;;6.15;1.95;;;;;;;;;;5016313;28;20046;-79
2023/02/05 00:40:53;;;;;;;9.95;1.95;;;;;;;;;;5016991;28;20530;-80
2023/02/05 00:43:19;;;;;;;3.70;1.40;;;;;;;;;;5017081;28;20053;-78
2023/02/05 00:45:45;;;;;;;4.72;1.98;;;;;;;;;;5017617;28;20061;-79
2023/02/05 00:48:12;;;;;;;7.70;2.15;;;;;;;;;;5016620;28;20053;-79
2023/02/05 00:50:39;;;;;;;6.30;2.20;;;;;;;;;;5019333;28;20474;-79
2023/02/05 00:53:06;;;;;;;6.80;1.95;;;;;;;;;;5033854;28;20121;-79
2023/02/05 00:55:33;;;;;;;5.75;2.10;;;;;;;;;;5036909;28;20073;-79
2023/02/05 00:58:00;;;;;;;8.50;1.95;;;;;;;;;;5035839;28;20365;-80
2023/02/05 01:00:27;;;;;;;3.28;1.77;;;;;;;;;;5034912;28;20099;-79
2023/02/05 01:02:54;;;;;;;4.63;1.77;;;;;;;;;;5017053;28;20619;-80
2023/02/05 01:05:20;;;;;;;4.15;1.80;;;;;;;;;;5018706;28;20058;-80
2023/02/05 01:07:47;;;;;;;4.22;1.80;;;;;;;;;;5018054;28;20085;-80
2023/02/05 01:10:14;;;;;;;6.28;1.95;;;;;;;;;;5018447;28;20053;-80
2023/02/05 01:12:40;;;;;;;7.68;2.03;;;;;;;;;;5020420;28;20053;-80
2023/02/05 01:15:07;;;;;;;5.82;2.10;;;;;;;;;;5018973;28;20045;-80
2023/02/05 01:17:34;;;;;;;5.90;1.90;;;;;;;;;;5017264;28;20550;-80
2023/02/05 01:20:00;;;;;;;5.25;2.17;;;;;;;;;;5018488;28;20229;-80
2023/02/05 01:22:27;;;;;;;6.47;2.08;;;;;;;;;;5018785;28;20521;-81
2023/02/05 01:24:53;;;;;;;7.50;2.22;;;;;;;;;;5017078;28;20054;-81
2023/02/05 01:27:20;;;;;;;6.63;2.38;;;;;;;;;;5016083;28;20340;-79
2023/02/05 01:29:46;;;;;;;5.72;2.45;;;;;;;;;;5016517;28;20045;-79
2023/02/05 01:32:13;;;;;;;5.55;2.42;;;;;;;;;;5016747;28;20041;-80
2023/02/05 01:34:39;;;;;;;6.80;2.50;;;;;;;;;;5015058;28;20042;-80
2023/02/05 01:37:06;;;;;;;8.02;2.42;;;;;;;;;;4998469;28;20050;-80
2023/02/05 01:39:32;;;;;;;6.55;2.40;;;;;;;;;;5015460;28;20046;-81
2023/02/05 01:41:58;;;;;;;5.75;2.22;;;;;;;;;;5016735;28;20453;-80
2023/02/05 01:44:25;;;;;;;9.88;2.33;;;;;;;;;;5015590;28;20471;-79
2023/02/05 01:46:52;;;;;;;9.32;2.40;;;;;;;;;;5015927;28;20065;-78
2023/02/05 01:49:22;;;;;;;4.78;1.75;;;;;;;;;;5010184;28;20050;-80
2023/02/05 01:51:49;;;;;;;5.43;2.30;;;;;;;;;;5026586;28;20045;-79
2023/02/05 01:54:16;;;;;;;5.25;2.25;;;;;;;;;;5034422;28;20046;-79
2023/02/05 01:56:45;;;;;;;4.60;2.38;;;;;;;;;;5033508;28;20050;-80
2023/02/05 01:59:17;;;;;;;4.43;2.20;;;;;;;;;;5034694;28;20068;-80
2023/02/05 02:01:44;;;;;;;7.47;2.08;;;;;;;;;;5035859;28;20087;-79
2023/02/05 02:04:13;;;;;;;4.43;2.00;;;;;;;;;;5033906;28;20075;-80
2023/02/05 02:06:40;;;;;;;4.97;1.95;;;;;;;;;;5036423;28;20137;-80
2023/02/05 02:09:07;;;;;;;5.50;2.20;;;;;;;;;;5035333;28;20053;-80
2023/02/05 02:11:36;;;;;;;5.43;2.15;;;;;;;;;;5034068;28;20049;-80
2023/02/05 02:14:08;;;;;;;5.43;2.30;;;;;;;;;;5027989;28;20129;-80
2023/02/05 02:16:35;;;;;;;7.97;2.30;;;;;;;;;;5018956;28;20046;-80
2023/02/05 02:19:05;;;;;;;7.00;2.88;;;;;;;;;;5016307;28;20418;-79
2023/02/05 02:21:32;;;;;;;8.90;3.83;;;;;;;;;;5016255;28;20046;-81
2023/02/05 02:24:01;;;;;;;7.40;3.05;;;;;;;;;;5015866;28;20468;-79
2023/02/05 02:26:41;;;;;;;6.28;3.13;;;;;;;;;;5014624;28;20092;-80
2023/02/05 02:29:09;;;;;;;5.65;2.35;;;;;;;;;;5014501;28;20054;-80
2023/02/05 02:31:49;;;;;;;6.88;2.90;;;;;;;;;;5013242;28;20046;-78
2023/02/05 02:34:25;;;;;;;7.25;2.70;;;;;;;;;;5014997;28;20049;-78
2023/02/05 02:36:56;;;;;;;6.80;3.15;;;;;;;;;;5015105;28;20049;-78
2023/02/05 02:39:29;;;;;;;8.77;3.60;;;;;;;;;;5013067;28;20042;-78
2023/02/05 02:41:59;;;;;;;6.25;2.97;;;;;;;;;;5013455;28;20145;-79
2023/02/05 02:44:31;;;;;;;8.35;2.50;;;;;;;;;;5013184;28;20556;-79
2023/02/05 02:47:00;;;;;;;6.15;2.78;;;;;;;;;;5019255;28;20053;-79
2023/02/05 02:49:35;;;;;;;7.68;3.20;;;;;;;;;;5022792;28;20056;-79
2023/02/05 02:52:05;;;;;;;5.88;2.63;;;;;;;;;;5034159;28;20132;-80
2023/02/05 02:54:32;;;;;;;5.50;2.10;;;;;;;;;;5041732;28;20496;-79
2023/02/05 02:57:00;;;;;;;3.80;2.00;;;;;;;;;;5040615;28;20196;-80
2023/02/05 02:59:28;;;;;;;6.90;2.22;;;;;;;;;;5022361;28;20056;-80
2023/02/05 03:01:57;;;;;;;5.35;2.25;;;;;;;;;;5041160;28;20060;-80
2023/02/05 03:04:26;;;;;;;8.82;1.85;;;;;;;;;;5023393;28;20063;-78
2023/02/05 03:06:54;;;;;;;5.43;2.42;;;;;;;;;;5041525;28;20096;-79
2023/02/05 03:09:27;;;;;;;5.35;2.40;;;;;;;;;;5040125;28;20045;-79
2023/02/05 03:11:53;;;;;;;8.95;2.40;;;;;;;;;;5041605;28;20045;-79
2023/02/05 03:14:20;;;;;;;5.97;2.05;;;;;;;;;;5023907;28;20049;-80
2023/02/05 03:16:46;;;;;;;4.32;2.13;;;;;;;;;;5041903;28;20088;-79
2023/02/05 03:19:13;;;;;;;8.02;1.88;;;;;;;;;;5039588;28;20121;-79
2023/02/05 03:21:41;;;;;;;5.55;1.98;;;;;;;;;;5040703;28;20064;-79
2023/02/05 03:24:08;;;;;;;4.55;2.22;;;;;;;;;;5038433;28;20057;-79
2023/02/05 03:26:35;;;;;;;6.85;2.55;;;;;;;;;;5022176;28;20113;-79
2023/02/05 03:29:03;;;;;;;8.45;3.13;;;;;;;;;;5039981;28;20049;-79
2023/02/05 03:31:39;;;;;;;7.72;3.38;;;;;;;;;;5023631;28;20205;-79
2023/02/05 03:34:05;;;;;;;6.50;2.83;;;;;;;;;;5022500;28;20045;-79
2023/02/05 03:36:52;;;;;;;6.05;2.92;;;;;;;;;;5041476;28;20049;-80
2023/02/05 03:39:37;;;;;;;9.30;3.05;;;;;;;;;;5040297;28;20541;-79
2023/02/05 03:42:10;;;;;;;11.10;4.03;;;;;;;;;;5042481;28;20434;-79
2023/02/05 03:44:45;;;;;;;14.93;5.85;;;;;;;;;;5045994;28;20049;-79
2023/02/05 03:47:27;;;;;;;12.07;5.22;;;;;;;;;;5040836;28;20075;-78
2023/02/05 03:50:05;;;;;;;8.82;3.88;;;;;;;;;;5033564;28;20049;-80
2023/02/05 03:52:39;;;;;;;12.70;3.85;;;;;;;;;;5018901;28;20042;-77
2023/02/05 03:55:09;;;;;;;8.63;3.30;;;;;;;;;;5022305;28;20071;-82
2023/02/05 03:57:46;;;;;;;7.65;3.85;;;;;;;;;;5020638;28;20125;-82
2023/02/05 04:00:12;;;;;;;8.88;3.92;;;;;;;;;;5020048;28;20042;-82
2023/02/05 04:02:39;;;;;;;9.60;4.10;;;;;;;;;;5000876;28;20057;-83
2023/02/05 04:05:06;;;;;;;10.77;3.90;;;;;;;;;;5017591;28;20046;-82
2023/02/05 04:07:32;;;;;;;8.93;3.40;;;;;;;;;;5017644;28;20095;-81
2023/02/05 04:09:59;;;;;;;6.90;3.72;;;;;;;;;;5017658;28;20053;-81
2023/02/05 04:12:25;;;;;;;10.45;4.28;;;;;;;;;;5017907;28;20046;-80
2023/02/05 04:14:51;;;;;;;10.82;4.60;;;;;;;;;;5018220;28;20050;-82
2023/02/05 04:17:18;;;;;;;13.77;4.90;;;;;;;;;;5016683;28;20621;-80
2023/02/05 04:19:44;;;;;;;11.35;4.50;;;;;;;;;;5016738;28;20061;-80
2023/02/05 04:22:10;;;;;;;12.70;4.88;;;;;;;;;;5018062;28;20057;-82
2023/02/05 04:24:37;;;;;;;8.73;3.92;;;;;;;;;;5016445;28;20046;-81
2023/02/05 04:27:03;;;;;;;11.88;4.65;;;;;;;;;;5015659;28;20089;-81
2023/02/05 04:29:30;;;;;;;7.82;3.70;;;;;;;;;;5016433;28;20141;-81
2023/02/05 04:31:56;;;;;;;14.02;3.97;;;;;;;;;;5017249;28;20413;-81
2023/02/05 04:34:23;;;;;;;8.98;3.75;;;;;;;;;;4999248;28;20133;-82
2023/02/05 04:36:49;;;;;;;6.55;2.80;;;;;;;;;;5016531;28;20050;-81
2023/02/05 04:39:15;;;;;;;5.72;2.20;;;;;;;;;;4997874;28;20058;-81
2023/02/05 04:41:42;;;;;;;6.10;2.10;;;;;;;;;;5016758;28;20050;-82
2023/02/05 04:44:08;;;;;;;5.55;2.30;;;;;;;;;;5016445;28;20054;-80
2023/02/05 04:46:34;;;;;;;8.05;2.50;;;;;;;;;;5016763;28;20057;-82
2023/02/05 04:49:01;;;;;;;7.68;2.67;;;;;;;;;;4996474;28;20058;-83
2023/02/05 04:51:27;;;;;;;5.78;2.58;;;;;;;;;;5026918;28;20037;-81
2023/02/05 04:53:53;;;;;;;7.30;2.90;;;;;;;;;;5034833;28;20049;-81
2023/02/05 04:56:20;;;;;;;6.30;2.40;;;;;;;;;;5035605;28;20053;-81
2023/02/05 04:58:46;;;;;;;5.55;2.30;;;;;;;;;;5035068;28;20041;-81
2023/02/05 05:01:14;;;;;;;5.10;2.60;;;;;;;;;;5041823;28;20693;-82
2023/02/05 05:03:41;;;;;;;4.38;2.38;;;;;;;;;;5036230;28;20045;-82
2023/02/05 05:06:08;;;;;;;4.78;2.30;;;;;;;;;;5033346;28;20512;-81
2023/02/05 05:08:34;;;;;;;4.47;2.17;;;;;;;;;;5030952;28;20080;-81
2023/02/05 05:11:05;;;;;;;5.22;2.60;;;;;;;;;;5015767;28;20060;-81
2023/02/05 05:13:34;;;;;;;4.07;2.17;;;;;;;;;;5029007;28;20582;-81
2023/02/05 05:16:00;;;;;;;5.78;2.17;;;;;;;;;;5013038;28;20498;-80
2023/02/05 05:18:27;;;;;;;6.88;2.65;;;;;;;;;;5009247;28;20054;-81
2023/02/05 05:20:53;;;;;;;6.72;1.90;;;;;;;;;;5013088;28;20053;-80
2023/02/05 05:23:20;;;;;;;6.20;2.15;;;;;;;;;;5012246;28;20045;-80
2023/02/05 05:25:47;;;;;;;7.80;2.47;;;;;;;;;;5012059;28;20065;-80
2023/02/05 05:28:14;;;;;;;8.38;2.15;;;;;;;;;;5012013;28;20046;-81
2023/02/05 05:30:41;;;;;;;7.57;2.30;;;;;;;;;;5012357;28;20074;-81
2023/02/05 05:33:08;;;;;;;4.82;2.10;;;;;;;;;;5012082;28;20060;-81
2023/02/05 05:35:34;;;;;;;4.47;2.30;;;;;;;;;;5013796;28;20078;-80
2023/02/05 05:38:01;;;;;;;4.90;2.22;;;;;;;;;;5015380;28;20105;-80
2023/02/05 05:45:59;;;;;;;3.85;2.40;;;;;;;;;;5014180;28;20131;-80
2023/02/05 05:48:26;;;;;;;6.50;2.30;;;;;;;;;;5013466;28;20061;-80
2023/02/05 05:50:53;;;;;;;4.93;2.35;;;;;;;;;;5023657;28;20050;-81
2023/02/05 05:53:19;;;;;;;4.72;2.40;;;;;;;;;;5015789;28;20049;-81
2023/02/05 05:55:46;;;;;;;7.40;2.50;;;;;;;;;;5034945;28;20077;-83
2023/02/05 05:58:12;;;;;;;7.15;2.28;;;;;;;;;;5035636;28;20060;-82
2023/02/05 06:00:39;;;;;;;6.82;2.50;;;;;;;;;;5036449;28;20042;-83
2023/02/05 06:03:05;;;;;;;6.07;2.38;;;;;;;;;;5036436;28;20140;-82
2023/02/05 06:05:32;;;;;;;4.65;2.13;;;;;;;;;;5035374;28;20482;-82
2023/02/05 06:07:59;;;;;;;3.92;2.05;;;;;;;;;;5034937;28;20053;-82
2023/02/05 06:10:25;;;;;;;6.85;2.80;;;;;;;;;;5034792;28;20053;-80
2023/02/05 06:12:52;;;;;;;5.50;2.53;;;;;;;;;;5035583;28;20045;-84
2023/02/05 06:15:18;;;;;;;7.85;2.53;;;;;;;;;;5016755;28;20046;-83
2023/02/05 06:17:45;;;;;;;7.80;3.05;;;;;;;;;;5015930;28;20057;-82
2023/02/05 06:20:11;;;;;;;5.63;2.92;;;;;;;;;;5013361;28;20072;-82
2023/02/05 06:22:38;;;;;;;10.35;2.88;;;;;;;;;;5012273;28;20164;-82
2023/02/05 06:25:05;;;;;;;6.38;2.88;;;;;;;;;;5013747;28;20049;-81
2023/02/05 06:27:31;;;;;;;4.60;2.70;;;;;;;;;;5013184;28;20054;-81
2023/02/05 06:29:58;;;;;;;5.70;2.80;;;;;;;;;;5013908;28;20058;-80
2023/02/05 06:32:24;;;;;;;9.40;3.55;;;;;;;;;;5014225;28;20042;-80
2023/02/05 06:34:52;;;;;;;7.90;3.30;;;;;;;;;;5013181;28;20057;-81
2023/02/05 06:37:24;;;;;;;7.57;3.13;;;;;;;;;;5012592;28;20350;-84
2023/02/05 06:40:11;;;;;;;7.75;2.72;;;;;;;;;;5012624;28;20099;-81
2023/02/05 06:42:38;;;;;;;5.32;2.58;;;;;;;;;;5011794;28;20054;-81
2023/02/05 06:45:04;;;;;;;8.23;3.10;;;;;;;;;;5012854;28;20054;-79
2023/02/05 06:47:31;;;;;;;8.70;3.17;;;;;;;;;;4994683;28;20064;-81
2023/02/05 06:49:57;;;;;;;8.00;3.20;;;;;;;;;;5019109;28;20046;-81
2023/02/05 06:52:23;;;;;;;8.60;2.92;;;;;;;;;;5024293;28;20061;-81
2023/02/05 06:54:50;;;;;;;8.60;3.38;;;;;;;;;;5026828;28;20041;-82
2023/02/05 06:57:16;;;;;;;6.85;3.55;;;;;;;;;;5006855;28;20042;-82
2023/02/05 06:59:42;;;;;;;7.90;3.92;;;;;;;;;;4991645;28;20469;-81
2023/02/05 07:02:12;;;;;;;9.00;3.55;;;;;;;;;;5010778;28;20058;-83
2023/02/05 07:04:38;;;;;;;7.35;3.40;;;;;;;;;;5010388;28;20050;-81
2023/02/05 07:07:05;;;;;;;9.05;3.45;;;;;;;;;;4992546;28;20081;-82
2023/02/05 07:09:31;;;;;;;11.45;4.05;;;;;;;;;;5008925;28;20406;-82
2023/02/05 07:11:58;;;;;;;10.35;4.20;;;;;;;;;;5009873;28;20050;-82
2023/02/05 07:14:24;;;;;;;11.25;3.65;;;;;;;;;;4998836;28;20482;-82
2023/02/05 07:16:51;;;;;;;7.97;3.55;;;;;;;;;;4991312;28;20472;-82
2023/02/05 07:19:17;;;;;;;8.48;3.85;;;;;;;;;;4991325;28;20045;-82
2023/02/05 07:21:43;;;;;;;14.27;3.72;;;;;;;;;;5001679;28;20046;-82
2023/02/05 07:24:10;;;;;;;7.57;3.83;;;;;;;;;;4999531;28;20054;-81
2023/02/05 07:26:37;;;;;;;9.70;4.13;;;;;;;;;;5023188;28;20141;-82
2023/02/05 07:29:03;;;;;;;10.63;4.40;;;;;;;;;;5012359;28;20209;-80
2023/02/05 07:31:30;;;;;;;13.15;4.43;;;;;;;;;;5010160;28;20042;-81
2023/02/05 07:33:56;;;;;;;7.32;3.70;;;;;;;;;;5013189;28;20306;-81
2023/02/05 07:36:23;;;;;;;10.73;3.42;;;;;;;;;;5013150;28;20053;-82
2023/02/05 07:38:50;;;;;;;10.35;3.67;;;;;;;;;;4996509;28;20487;-83
2023/02/05 07:41:16;;;;;;;8.65;3.40;;;;;;;;;;5019304;28;20065;-82
2023/02/05 07:43:43;;;;;;;7.65;3.30;;;;;;;;;;5016729;28;20456;-82
2023/02/05 07:46:11;;;;;;;10.57;3.60;;;;;;;;;;5017092;28;20075;-83
2023/02/05 07:48:37;;;;;;;5.63;3.05;;;;;;;;;;5016609;28;20257;-82
2023/02/05 07:51:05;;;;;;;9.05;3.20;;;;;;;;;;5031128;28;20049;-82
2023/02/05 07:53:31;;;;;;;8.10;3.35;;;;;;;;;;4997260;28;20423;-82
2023/02/05 07:56:02;;;;;;;11.95;3.67;;;;;;;;;;5003322;28;20056;-81
2023/02/05 07:58:28;;;;;;;8.07;3.50;;;;;;;;;;5013616;28;20070;-83
2023/02/05 08:00:58;;;;;;;5.43;2.65;;;;;;;;;;5014847;28;20054;-83
2023/02/05 08:03:25;;;;;;;8.95;3.47;;;;;;;;;;5013848;28;20116;-83
2023/02/05 08:05:51;;;;;;;9.05;2.97;;;;;;;;;;5015045;28;20050;-83
2023/02/05 08:08:17;;;;;;;9.77;3.13;;;;;;;;;;5015894;28;20054;-81
2023/02/05 08:10:43;;;;;;;8.90;3.47;;;;;;;;;;5028360;28;20053;-82
2023/02/05 08:13:10;;;;;;;7.75;3.10;;;;;;;;;;5029415;28;20060;-82
2023/02/05 08:15:37;;;;;;;9.80;3.40;;;;;;;;;;5018661;28;20061;-82
2023/02/05 08:18:04;;;;;;;7.50;3.97;;;;;;;;;;4990336;28;20054;-81
2023/02/05 08:20:30;;;;;;;9.13;3.78;;;;;;;;;;4993028;28;20526;-80
2023/02/05 08:22:56;;;;;;;7.78;3.50;;;;;;;;;;5010756;28;20054;-83
2023/02/05 08:25:23;;;;;;;9.75;4.25;;;;;;;;;;5010738;28;20478;-81
2023/02/05 08:27:49;;;;;;;7.03;3.72;;;;;;;;;;5010427;28;20053;-81
2023/02/05 08:30:17;;;;;;;16.88;7.97;;;;;;;;;;5010783;28;20435;-82
2023/02/05 08:32:46;;;;;;;18.45;7.88;;;;;;;;;;5008976;28;20141;-81
2023/02/05 08:35:12;;;;;;;13.40;6.85;;;;;;;;;;5009657;28;20644;-78
2023/02/05 08:37:39;;;;;;;11.73;6.25;;;;;;;;;;5009502;28;20181;-79
2023/02/05 08:40:05;;;;;;;12.68;6.40;;;;;;;;;;5009363;28;20049;-80
2023/02/05 08:42:32;;;;;;;19.27;5.80;;;;;;;;;;5009408;28;20088;-78
2023/02/05 08:44:58;;;;;;;15.20;6.43;;;;;;;;;;5008600;28;20054;-78
2023/02/05 08:47:25;;;;;;;15.65;6.57;;;;;;;;;;5006559;28;20565;-79
2023/02/05 08:49:51;;;;;;;14.77;6.68;;;;;;;;;;5011647;28;20058;-77
2023/02/05 08:52:18;;;;;;;17.50;8.23;;;;;;;;;;4991756;28;20167;-77
2023/02/05 08:54:45;;;;;;;19.63;7.18;;;;;;;;;;5005645;28;20897;-78
2023/02/05 08:57:11;;;;;;;18.65;6.85;;;;;;;;;;5005498;28;20054;-76
2023/02/05 08:59:38;;;;;;;13.63;6.63;;;;;;;;;;5008352;28;20045;-80
2023/02/05 09:02:04;;;;;;;16.70;8.10;;;;;;;;;;5008893;28;20273;-81
2023/02/05 09:04:31;;;;;;;19.38;9.95;;;;;;;;;;5009295;28;20452;-81
2023/02/05 09:06:57;;;;;;;17.98;8.32;;;;;;;;;;5009912;28;20050;-80
2023/02/05 09:09:24;;;;;;;12.90;5.40;;;;;;;;;;5008033;28;20054;-83
2023/02/05 09:11:50;;;;;;;12.38;4.80;;;;;;;;;;5008816;28;20059;-81
2023/02/05 09:14:16;;;;;;;12.32;5.55;;;;;;;;;;4998320;28;20057;-80
2023/02/05 09:16:43;;;;;;;11.38;5.22;;;;;;;;;;5000102;28;20128;-82
2023/02/05 09:19:09;;;;;;;10.50;4.85;;;;;;;;;;5006812;28;20526;-82
2023/02/05 09:21:36;;;;;;;9.80;4.95;;;;;;;;;;5008665;28;20070;-83
2023/02/05 09:24:02;;;;;;;11.10;5.53;;;;;;;;;;5008159;28;20798;-80
2023/02/05 09:26:29;;;;;;;15.18;6.45;;;;;;;;;;4991125;28;20046;-81
2023/02/05 09:28:56;;;;;;;22.40;8.57;;;;;;;;;;5008577;28;20136;-83
2023/02/05 09:31:23;;;;;;;44.90;13.88;;;;;;;;;;5009112;28;20045;-82
2023/02/05 09:33:49;;;;;;;40.63;13.93;;;;;;;;;;5008373;28;20115;-82
2023/02/05 09:36:18;;;;;;;16.60;6.30;;;;;;;;;;5007943;28;20750;-83
2023/02/05 09:38:47;;;;;;;62.58;17.95;;;;;;;;;;5007155;28;20061;-81
2023/02/05 09:41:20;;;;;;;24.90;9.43;;;;;;;;;;5008375;28;20056;-82
2023/02/05 09:43:53;;;;;;;11.80;5.07;;;;;;;;;;4990844;28;20058;-82
2023/02/05 09:46:43;;;;;;;7.00;3.60;;;;;;;;;;5008450;28;20073;-81
2023/02/05 09:49:18;;;;;;;8.75;3.40;;;;;;;;;;5007152;28;20069;-82
2023/02/05 09:51:46;;;;;;;8.40;3.58;;;;;;;;;;5016364;28;20053;-82
2023/02/05 09:54:16;;;;;;;7.05;3.40;;;;;;;;;;5009176;28;20556;-81
2023/02/05 09:56:43;;;;;;;6.57;3.35;;;;;;;;;;5008475;28;20080;-81
2023/02/05 09:59:13;;;;;;;6.50;3.47;;;;;;;;;;5007289;28;20112;-81
2023/02/05 10:01:42;;;;;;;6.70;3.20;;;;;;;;;;5009252;28;20092;-81
2023/02/05 10:04:10;;;;;;;9.15;3.72;;;;;;;;;;5006862;28;20085;-82
2023/02/05 10:06:44;;;;;;;8.45;3.30;;;;;;;;;;5008055;28;20072;-82
2023/02/05 10:09:34;;;;;;;5.97;3.08;;;;;;;;;;5007827;28;20066;-83
2023/02/05 10:12:19;;;;;;;6.15;3.00;;;;;;;;;;4962570;28;20045;-81
2023/02/05 10:14:57;;;;;;;6.97;2.90;;;;;;;;;;5009062;28;20049;-80
2023/02/05 10:17:39;;;;;;;8.57;3.10;;;;;;;;;;5008763;28;20077;-80
2023/02/05 10:20:17;;;;;;;4.90;2.67;;;;;;;;;;5008844;28;20054;-81
2023/02/05 10:22:51;;;;;;;4.88;2.55;;;;;;;;;;5008349;28;20060;-81
2023/02/05 10:25:30;;;;;;;7.35;2.70;;;;;;;;;;5012288;28;20122;-81
2023/02/05 10:28:02;;;;;;;4.82;2.33;;;;;;;;;;5011763;28;20458;-81
2023/02/05 10:30:49;;;;;;;6.97;2.63;;;;;;;;;;5012482;28;20060;-79
2023/02/05 10:33:17;;;;;;;7.20;3.03;;;;;;;;;;5004638;28;20124;-81
2023/02/05 10:35:56;;;;;;;6.32;2.60;;;;;;;;;;5010968;28;20494;-81
2023/02/05 10:38:23;;;;;;;8.57;2.60;;;;;;;;;;5009333;28;20056;-82
2023/02/05 10:40:54;;;;;;;6.55;2.92;;;;;;;;;;5012361;28;20076;-82
2023/02/05 10:43:28;;;;;;;6.00;2.33;;;;;;;;;;5011252;28;20080;-82
2023/02/05 10:45:55;;;;;;;8.18;2.80;;;;;;;;;;5008949;28;20115;-81
2023/02/05 10:48:37;;;;;;;9.57;3.10;;;;;;;;;;5009793;28;20088;-80
2023/02/05 10:51:09;;;;;;;7.38;2.83;;;;;;;;;;5011550;28;20058;-80
2023/02/05 10:53:36;;;;;;;8.30;2.90;;;;;;;;;;4969798;28;20046;-81
2023/02/05 10:56:03;;;;;;;5.55;2.50;;;;;;;;;;4999658;28;20073;-80
2023/02/05 10:58:48;;;;;;;5.55;2.80;;;;;;;;;;5007786;28;20501;-81
2023/02/05 11:01:28;;;;;;;5.80;2.72;;;;;;;;;;5009329;28;20276;-83
2023/02/05 11:04:00;;;;;;;6.60;2.67;;;;;;;;;;5008913;28;20057;-81
2023/02/05 11:06:29;;;;;;;4.78;2.47;;;;;;;;;;5010186;28;20049;-82
2023/02/05 11:08:55;;;;;;;6.03;2.88;;;;;;;;;;5013271;28;20054;-81
2023/02/05 11:11:22;;;;;;;6.28;2.67;;;;;;;;;;5012952;28;20082;-81
2023/02/05 11:13:56;;;;;;;5.70;2.67;;;;;;;;;;5007269;28;20050;-80
2023/02/05 11:16:32;;;;;;;4.55;2.65;;;;;;;;;;5001146;28;20143;-81
2023/02/05 11:19:00;;;;;;;5.75;2.60;;;;;;;;;;5010908;28;20498;-81
2023/02/05 11:21:44;;;;;;;6.93;2.40;;;;;;;;;;5014600;28;20056;-80
2023/02/05 11:24:20;;;;;;;5.18;2.20;;;;;;;;;;5015323;28;20085;-81
2023/02/05 11:26:48;;;;;;;5.05;2.42;;;;;;;;;;5015073;28;20050;-81
2023/02/05 11:29:19;;;;;;;6.50;2.90;;;;;;;;;;5013805;28;20069;-81
2023/02/05 11:31:45;;;;;;;9.02;2.67;;;;;;;;;;5014357;28;20208;-80
2023/02/05 11:34:14;;;;;;;5.88;2.70;;;;;;;;;;5014784;28;20407;-82
2023/02/05 11:36:51;;;;;;;5.00;2.38;;;;;;;;;;5013898;28;20050;-80
2023/02/05 11:39:47;;;;;;;5.35;2.60;;;;;;;;;;5013097;28;20049;-82
2023/02/05 11:42:18;;;;;;;3.90;2.30;;;;;;;;;;4995477;28;20208;-81
2023/02/05 11:44:50;;;;;;;5.53;2.30;;;;;;;;;;5015627;28;20386;-80
2023/02/05 11:47:22;;;;;;;5.53;2.38;;;;;;;;;;5013245;28;20160;-82
2023/02/05 11:49:49;;;;;;;6.78;2.60;;;;;;;;;;5020636;28;20053;-82
2023/02/05 11:52:21;;;;;;;5.55;2.15;;;;;;;;;;5026508;28;20045;-81
2023/02/05 11:54:49;;;;;;;7.13;2.72;;;;;;;;;;5034689;28;20049;-82
2023/02/05 11:57:21;;;;;;;8.88;2.60;;;;;;;;;;5022164;28;20482;-81
2023/02/05 11:59:58;;;;;;;5.72;2.40;;;;;;;;;;5013820;28;20136;-80
2023/02/05 12:02:25;;;;;;;6.20;2.75;;;;;;;;;;5014175;28;20045;-82
2023/02/05 12:04:54;;;;;;;6.68;2.17;;;;;;;;;;5012879;28;20501;-82
2023/02/05 12:07:21;;;;;;;10.68;5.30;;;;;;;;;;5012886;28;20526;-81
2023/02/05 12:09:47;;;;;;;8.52;3.10;;;;;;;;;;5012519;28;20041;-82
2023/02/05 12:12:49;;;;;;;6.35;3.00;;;;;;;;;;5013329;28;20065;-81
2023/02/05 12:15:22;;;;;;;5.15;2.15;;;;;;;;;;4994735;28;20047;-79
2023/02/05 12:17:48;;;;;;;7.35;2.90;;;;;;;;;;5007640;28;20086;-80
2023/02/05 12:20:14;;;;;;;7.00;3.00;;;;;;;;;;5015431;28;20046;-84
2023/02/05 12:22:50;;;;;;;8.50;2.78;;;;;;;;;;5027021;28;20153;-80
2023/02/05 12:25:28;;;;;;;5.40;2.72;;;;;;;;;;5014535;28;20058;-82
2023/02/05 12:28:15;;;;;;;7.30;2.83;;;;;;;;;;5011247;28;20058;-81
2023/02/05 12:30:56;;;;;;;4.03;2.47;;;;;;;;;;4981259;28;20466;-82
2023/02/05 12:33:27;;;;;;;8.05;2.80;;;;;;;;;;5011899;28;20158;-81
2023/02/05 12:35:53;;;;;;;6.75;2.63;;;;;;;;;;5011811;28;20075;-81
2023/02/05 12:38:26;;;;;;;8.43;2.50;;;;;;;;;;5007778;28;20073;-82
2023/02/05 12:40:57;;;;;;;6.20;2.67;;;;;;;;;;5008334;28;20207;-81
2023/02/05 12:43:29;;;;;;;5.97;2.40;;;;;;;;;;5007238;28;20054;-81
2023/02/05 12:45:55;;;;;;;6.50;2.47;;;;;;;;;;5007449;28;20374;-80
2023/02/05 12:48:28;;;;;;;6.07;2.47;;;;;;;;;;5007526;28;20054;-79
2023/02/05 12:51:10;;;;;;;7.68;2.70;;;;;;;;;;5013014;28;20057;-80
2023/02/05 12:53:45;;;;;;;6.53;2.30;;;;;;;;;;4996254;28;20050;-80
2023/02/05 12:56:47;;;;;;;5.32;2.40;;;;;;;;;;4995878;28;20042;-79
2023/02/05 12:59:18;;;;;;;10.40;2.53;;;;;;;;;;4916152;29;20107;-80
2023/02/05 13:01:51;;;;;;;7.18;2.72;;;;;;;;;;4997968;28;20041;-80
2023/02/05 13:04:28;;;;;;;5.45;2.25;;;;;;;;;;5012576;28;20072;-81
2023/02/05 13:07:04;;;;;;;6.97;2.40;;;;;;;;;;5013641;28;20050;-79
2023/02/05 13:09:30;;;;;;;;;;;;;;;;;;5013004;28;20049;-81
2023/02/05 13:12:04;;;;;;;5.90;2.60;;;;;;;;;;5010632;28;19936;-80
2023/02/05 13:14:35;;;;;;;4.53;2.25;;;;;;;;;;5012698;28;20065;-80
2023/02/05 13:17:16;;;;;;;6.95;2.70;;;;;;;;;;5012468;28;20049;-81
2023/02/05 13:19:46;;;;;;;6.68;2.60;;;;;;;;;;4991681;28;20060;-79
2023/02/05 13:30:49;;;;;;;38.88;11.02;;;;;;;;;;5015997;28;20060;-81
2023/02/05 13:33:15;;;;;;;10.63;3.88;;;;;;;;;;5017385;28;20073;-81
2023/02/05 13:35:48;;;;;;;5.03;2.17;;;;;;;;;;5016160;28;20058;-81
2023/02/05 13:38:21;;;;;;;5.30;2.30;;;;;;;;;;5015096;28;20070;-80
2023/02/05 13:41:13;;;;;;;4.53;2.38;;;;;;;;;;5021129;28;20085;-82
2023/02/05 13:43:46;;;;;;;7.72;2.70;;;;;;;;;;4973510;28;20068;-82
2023/02/05 13:46:25;;;;;;;3.53;1.90;;;;;;;;;;4995382;28;20069;-81
2023/02/05 13:49:00;;;;;;;4.32;2.10;;;;;;;;;;5010625;28;20072;-81
2023/02/05 13:51:30;;;;;;;6.97;2.53;;;;;;;;;;5019221;28;20056;-81
2023/02/05 13:54:15;;;;;;;6.25;2.17;;;;;;;;;;5010202;28;20476;-79
2023/02/05 13:57:00;;;;;;;8.90;2.40;;;;;;;;;;5010800;28;20441;-80
2023/02/05 13:59:27;;;;;;;5.00;2.25;;;;;;;;;;5010678;28;20078;-80
2023/02/05 14:01:59;;;;;;;7.55;2.72;;;;;;;;;;5003772;28;20073;-80
2023/02/05 14:04:27;;;;;;;6.28;2.15;;;;;;;;;;4997035;28;20209;-80
2023/02/05 14:07:14;;;;;;;5.88;2.58;;;;;;;;;;5012390;28;20050;-80
2023/02/05 14:09:42;;;;;;;5.35;2.53;;;;;;;;;;5012447;28;20112;-80
2023/02/05 14:12:10;;;;;;;6.50;2.20;;;;;;;;;;5011532;28;20096;-80
2023/02/05 14:14:37;;;;;;;3.45;1.88;;;;;;;;;;4998069;28;20418;-82
2023/02/05 14:17:22;;;;;;;7.07;2.30;;;;;;;;;;4996318;28;20145;-81
2023/02/05 14:19:59;;;;;;;4.50;2.35;;;;;;;;;;5010600;28;20050;-81
2023/02/05 14:22:41;;;;;;;4.90;2.28;;;;;;;;;;5011520;28;20108;-78
2023/02/05 14:25:26;;;;;;;6.68;2.88;;;;;;;;;;5011685;28;20450;-81
2023/02/05 14:27:54;;;;;;;6.73;2.13;;;;;;;;;;5012420;28;20068;-79
2023/02/05 14:30:36;;;;;;;6.88;2.20;;;;;;;;;;5014347;28;20053;-82
2023/02/05 14:33:22;;;;;;;7.10;2.40;;;;;;;;;;5013176;28;20065;-81
2023/02/05 14:35:53;;;;;;;6.93;2.38;;;;;;;;;;4993966;28;20145;-81
2023/02/05 14:38:22;;;;;;;7.43;2.33;;;;;;;;;;5013552;28;20509;-80
2023/02/05 14:41:07;;;;;;;5.65;2.25;;;;;;;;;;4998511;28;20050;-81
2023/02/05 14:43:35;;;;;;;6.15;2.70;;;;;;;;;;5008736;28;20349;-81
2023/02/05 14:46:04;;;;;;;3.53;1.98;;;;;;;;;;5010468;28;20143;-79
2023/02/05 14:48:32;;;;;;;4.88;2.15;;;;;;;;;;5010562;28;20135;-80
2023/02/05 14:51:00;;;;;;;4.38;2.17;;;;;;;;;;5023617;28;20493;-81
2023/02/05 14:53:28;;;;;;;5.45;2.17;;;;;;;;;;5011591;28;20409;-78
2023/02/05 14:55:55;;;;;;;7.70;2.80;;;;;;;;;;5011477;28;20109;-81
2023/02/05 14:58:22;;;;;;;4.57;2.70;;;;;;;;;;5010134;28;20298;-83
2023/02/05 15:00:48;;;;;;;8.38;3.05;;;;;;;;;;5011023;28;20038;-82
2023/02/05 15:03:23;;;;;;;9.57;2.58;;;;;;;;;;5009648;28;20136;-81
2023/02/05 15:05:53;;;;;;;6.10;2.40;;;;;;;;;;5008275;28;20428;-81
2023/02/05 15:08:34;;;;;;;6.22;2.50;;;;;;;;;;5009238;28;20041;-80
2023/02/05 15:11:16;;;;;;;5.55;2.08;;;;;;;;;;5009789;28;20078;-80